Time;durP1;ratioP1;P1;durP2;ratioP2;P2;SDS_P1;SDS_P2;PMS_P1;PMS_P2;Temp;Humidity;BMP_temperature;BMP_pressure;BME280_temperature;BME280_humidity;BME280_pressure;Samples;Min_cycle;Max_cycle;Signal;HPM_P1;HPM_P2
2022/01/31 00:02:11;;;;;;;26.23;4.50;;;3.10;99.90;;;;;;5054702;28;20056;-70
2022/01/31 00:04:38;;;;;;;19.67;4.30;;;3.10;99.90;;;;;;5054588;28;20095;-69
2022/01/31 00:07:05;;;;;;;23.77;4.47;;;3.10;99.90;;;;;;5054488;28;20131;-70
2022/01/31 00:09:32;;;;;;;22.87;5.07;;;3.20;99.90;;;;;;5054571;28;20076;-69
2022/01/31 00:12:04;;;;;;;22.10;4.73;;;3.20;99.90;;;;;;5054430;28;20051;-70
2022/01/31 00:14:36;;;;;;;26.73;4.53;;;3.10;99.90;;;;;;5054548;28;20052;-70
2022/01/31 00:17:05;;;;;;;30.03;4.47;;;3.20;99.90;;;;;;5054217;28;20072;-69
2022/01/31 00:19:32;;;;;;;28.03;5.03;;;3.20;99.90;;;;;;5054370;28;20107;-70
2022/01/31 00:21:59;;;;;;;26.27;4.70;;;3.10;99.90;;;;;;5054392;28;20131;-70
2022/01/31 00:24:26;;;;;;;27.90;4.47;;;3.10;99.90;;;;;;5053752;28;20087;-70
2022/01/31 00:26:53;;;;;;;36.40;5.03;;;3.20;99.90;;;;;;5053478;28;20092;-70
2022/01/31 00:29:21;;;;;;;22.83;4.40;;;3.20;99.90;;;;;;5054271;28;20107;-70
2022/01/31 00:31:49;;;;;;;24.33;4.13;;;3.20;99.90;;;;;;5054088;28;20124;-70
2022/01/31 00:34:16;;;;;;;25.10;4.80;;;3.20;99.90;;;;;;5054119;28;20144;-70
2022/01/31 00:36:42;;;;;;;24.90;4.73;;;3.20;99.90;;;;;;5053981;28;20148;-70
2022/01/31 00:39:13;;;;;;;31.43;5.00;;;3.20;99.90;;;;;;5053977;28;20133;-70
2022/01/31 00:41:40;;;;;;;30.17;5.67;;;3.20;99.90;;;;;;5053960;28;20059;-70
2022/01/31 00:44:17;;;;;;;20.03;4.17;;;3.20;99.90;;;;;;5054089;28;20083;-70
2022/01/31 00:46:51;;;;;;;21.13;4.47;;;3.20;99.90;;;;;;5053658;28;20528;-70
2022/01/31 00:49:27;;;;;;;21.70;4.20;;;3.20;99.90;;;;;;5053986;28;20079;-70
2022/01/31 00:51:54;;;;;;;25.42;4.38;;;3.20;99.90;;;;;;5053638;28;20056;-70
2022/01/31 00:54:22;;;;;;;19.77;4.20;;;3.20;99.90;;;;;;5053602;28;20536;-70
2022/01/31 00:56:49;;;;;;;29.43;4.60;;;3.10;99.90;;;;;;5053666;28;20049;-70
2022/01/31 00:59:16;;;;;;;25.63;5.50;;;3.10;99.90;;;;;;5053657;28;20350;-70
2022/01/31 01:01:45;;;;;;;22.70;4.60;;;3.10;99.90;;;;;;5053549;28;20492;-70
2022/01/31 01:04:12;;;;;;;21.17;3.80;;;3.10;99.90;;;;;;5053660;28;20053;-70
2022/01/31 01:06:39;;;;;;;30.10;5.43;;;3.00;99.90;;;;;;5053317;28;20080;-70
2022/01/31 01:09:07;;;;;;;32.00;5.10;;;3.00;99.90;;;;;;5053295;28;20578;-70
2022/01/31 01:11:35;;;;;;;21.13;4.23;;;3.00;99.90;;;;;;5053570;28;20052;-70
2022/01/31 01:14:02;;;;;;;32.17;4.60;;;2.90;99.90;;;;;;5053222;28;20052;-70
2022/01/31 01:16:29;;;;;;;21.43;4.50;;;2.90;99.90;;;;;;5053246;28;20139;-70
2022/01/31 01:18:57;;;;;;;24.53;5.07;;;2.90;99.90;;;;;;5053265;28;20059;-70
2022/01/31 01:21:24;;;;;;;11.63;3.97;;;3.00;99.90;;;;;;5053156;28;20081;-70
2022/01/31 01:23:51;;;;;;;22.80;4.43;;;2.90;99.90;;;;;;5053414;28;20480;-70
2022/01/31 01:26:18;;;;;;;34.20;4.77;;;2.90;99.90;;;;;;5053462;28;20088;-70
2022/01/31 01:28:46;;;;;;;19.87;4.43;;;2.90;99.90;;;;;;5053621;28;20060;-70
2022/01/31 01:31:14;;;;;;;26.27;5.13;;;2.80;99.90;;;;;;5054249;28;20099;-70
2022/01/31 01:33:41;;;;;;;28.10;4.53;;;2.80;99.90;;;;;;5053557;28;20461;-70
2022/01/31 01:36:10;;;;;;;31.03;5.23;;;2.80;99.90;;;;;;5052635;28;20052;-70
2022/01/31 01:38:37;;;;;;;25.43;4.63;;;2.70;99.90;;;;;;5052999;28;20144;-70
2022/01/31 01:41:05;;;;;;;18.73;4.43;;;2.60;99.90;;;;;;5053015;28;20493;-70
2022/01/31 01:43:32;;;;;;;20.87;4.50;;;2.60;99.90;;;;;;5053047;28;20111;-70
2022/01/31 01:46:01;;;;;;;22.67;3.73;;;2.50;99.90;;;;;;5052864;28;20562;-70
2022/01/31 01:48:28;;;;;;;17.20;4.33;;;2.50;99.90;;;;;;5052945;28;20140;-70
2022/01/31 01:50:56;;;;;;;24.77;4.93;;;2.50;99.90;;;;;;5053205;28;20135;-70
2022/01/31 01:53:25;;;;;;;22.37;4.73;;;2.50;99.90;;;;;;5052784;28;20049;-70
2022/01/31 01:55:53;;;;;;;18.57;4.57;;;2.50;99.90;;;;;;5052863;28;20045;-70
2022/01/31 01:58:21;;;;;;;23.73;3.83;;;2.40;99.90;;;;;;5052855;28;20053;-69
2022/01/31 02:00:58;;;;;;;22.97;4.17;;;2.40;99.90;;;;;;5052641;28;20060;-69
2022/01/31 02:03:27;;;;;;;23.80;4.03;;;2.40;99.90;;;;;;5052740;28;20070;-69
2022/01/31 02:05:55;;;;;;;24.33;4.07;;;2.40;99.90;;;;;;5052882;28;20041;-69
2022/01/31 02:08:24;;;;;;;18.67;3.57;;;2.40;99.90;;;;;;5052339;28;20088;-70
2022/01/31 02:10:51;;;;;;;19.13;3.60;;;2.30;99.90;;;;;;5052716;28;20421;-70
2022/01/31 02:13:19;;;;;;;25.60;4.07;;;2.30;99.90;;;;;;5052343;28;20595;-69
2022/01/31 02:15:49;;;;;;;20.03;3.80;;;2.30;99.90;;;;;;5052564;28;20083;-69
2022/01/31 02:18:16;;;;;;;19.30;3.47;;;2.30;99.90;;;;;;5052289;28;20056;-69
2022/01/31 02:20:46;;;;;;;19.07;4.23;;;2.30;99.90;;;;;;5052488;28;20491;-70
2022/01/31 02:23:15;;;;;;;23.43;4.50;;;2.30;99.90;;;;;;5052092;28;20049;-69
2022/01/31 02:25:56;;;;;;;21.60;4.57;;;2.30;99.90;;;;;;5052064;28;20045;-70
2022/01/31 02:28:26;;;;;;;22.37;3.47;;;2.20;99.90;;;;;;5052183;28;20049;-70
2022/01/31 02:30:54;;;;;;;29.27;4.73;;;2.20;99.90;;;;;;5051936;28;20144;-70
2022/01/31 02:33:21;;;;;;;27.67;5.00;;;2.20;99.90;;;;;;5051856;28;20053;-69
2022/01/31 02:35:51;;;;;;;19.37;3.90;;;2.20;99.90;;;;;;5051820;28;20088;-69
2022/01/31 02:38:17;;;;;;;22.17;3.57;;;2.20;99.90;;;;;;5051666;28;20586;-70
2022/01/31 02:40:45;;;;;;;25.17;4.17;;;2.10;99.90;;;;;;5052011;28;20060;-70
2022/01/31 02:43:12;;;;;;;23.30;4.00;;;2.20;99.90;;;;;;5051799;28;20049;-69
2022/01/31 02:45:40;;;;;;;34.23;5.83;;;2.20;99.90;;;;;;5051772;28;20079;-70
2022/01/31 02:48:07;;;;;;;15.13;3.50;;;2.10;99.90;;;;;;5051002;28;20057;-70
2022/01/31 02:50:34;;;;;;;20.63;5.27;;;2.10;99.90;;;;;;5050035;28;20057;-70
2022/01/31 02:53:12;;;;;;;19.10;3.80;;;2.10;99.90;;;;;;5051636;28;20536;-70
2022/01/31 02:55:40;;;;;;;21.13;4.07;;;2.10;99.90;;;;;;5051876;28;20053;-69
2022/01/31 02:58:07;;;;;;;21.00;4.20;;;2.10;99.90;;;;;;5051419;28;20588;-69
2022/01/31 03:00:34;;;;;;;21.77;3.73;;;2.10;99.90;;;;;;5051492;28;20148;-69
2022/01/31 03:03:01;;;;;;;19.20;4.20;;;2.10;99.90;;;;;;5051516;28;20045;-69
2022/01/31 03:05:28;;;;;;;24.10;4.70;;;2.20;99.90;;;;;;5051516;28;20057;-70
2022/01/31 03:07:55;;;;;;;21.03;4.33;;;2.20;99.90;;;;;;5051753;28;20143;-69
2022/01/31 03:10:23;;;;;;;23.03;4.57;;;2.20;99.90;;;;;;5051535;28;20136;-69
2022/01/31 03:12:50;;;;;;;18.30;4.03;;;2.20;99.90;;;;;;5051271;28;20073;-69
2022/01/31 03:15:17;;;;;;;27.90;4.30;;;2.20;99.90;;;;;;5051491;28;20099;-69
2022/01/31 03:17:47;;;;;;;21.87;3.70;;;2.20;99.90;;;;;;5051414;28;20592;-70
2022/01/31 03:20:15;;;;;;;27.17;3.87;;;2.20;99.90;;;;;;5051052;28;20494;-70
2022/01/31 03:22:42;;;;;;;20.30;4.80;;;2.20;99.90;;;;;;5051323;28;20080;-69
2022/01/31 03:25:10;;;;;;;23.77;4.13;;;2.20;99.90;;;;;;5051148;28;20091;-70
2022/01/31 03:27:39;;;;;;;24.57;4.80;;;2.20;99.90;;;;;;5051375;28;20143;-70
2022/01/31 03:30:07;;;;;;;18.50;3.70;;;2.20;99.90;;;;;;5051221;28;20156;-70
2022/01/31 03:32:34;;;;;;;16.77;3.57;;;2.20;99.90;;;;;;5051075;28;20136;-70
2022/01/31 03:35:02;;;;;;;19.33;4.67;;;2.20;99.90;;;;;;5051492;28;20131;-70
2022/01/31 03:37:29;;;;;;;24.70;5.30;;;2.20;99.90;;;;;;5051117;28;20136;-69
2022/01/31 03:39:56;;;;;;;17.70;5.03;;;2.20;99.90;;;;;;5051088;28;20084;-70
2022/01/31 03:42:23;;;;;;;22.27;4.00;;;2.20;99.90;;;;;;5051333;28;20565;-70
2022/01/31 03:44:53;;;;;;;23.43;3.70;;;2.10;99.90;;;;;;5051197;28;20131;-70
2022/01/31 03:47:21;;;;;;;19.73;3.90;;;2.10;99.90;;;;;;5051304;28;20103;-70
2022/01/31 03:49:48;;;;;;;16.47;3.43;;;2.20;99.90;;;;;;5051183;28;20049;-69
2022/01/31 03:52:16;;;;;;;11.23;4.00;;;2.20;99.90;;;;;;5050999;28;20081;-69
2022/01/31 03:54:43;;;;;;;18.90;4.17;;;2.20;99.90;;;;;;5050961;28;20132;-70
2022/01/31 03:57:10;;;;;;;18.83;4.27;;;2.20;99.90;;;;;;5050947;28;20144;-70
2022/01/31 03:59:38;;;;;;;22.73;3.77;;;2.20;99.90;;;;;;5052108;28;20425;-70
2022/01/31 04:02:07;;;;;;;19.00;4.03;;;2.20;99.90;;;;;;5055110;28;20560;-69
2022/01/31 04:04:34;;;;;;;23.57;5.43;;;2.20;99.90;;;;;;5054736;28;20053;-70
2022/01/31 04:07:01;;;;;;;15.37;3.93;;;2.20;99.90;;;;;;5054728;28;20056;-69
2022/01/31 04:09:28;;;;;;;17.60;5.07;;;2.20;99.90;;;;;;5151724;22;20052;-68
2022/01/31 04:11:55;;;;;;;14.13;4.20;;;2.20;99.90;;;;;;5055690;28;20132;-68
2022/01/31 04:14:26;;;;;;;14.17;3.40;;;2.20;99.90;;;;;;5055365;28;20132;-68
2022/01/31 04:16:55;;;;;;;17.33;4.13;;;2.20;99.90;;;;;;5055124;28;20053;-68
2022/01/31 04:19:24;;;;;;;22.03;4.30;;;2.20;99.90;;;;;;5055144;28;20068;-68
2022/01/31 04:21:52;;;;;;;15.37;3.77;;;2.20;99.90;;;;;;5054898;28;20099;-68
2022/01/31 04:24:23;;;;;;;17.23;3.90;;;2.20;99.90;;;;;;5054738;28;20091;-68
2022/01/31 04:26:59;;;;;;;19.27;4.80;;;2.20;99.90;;;;;;5054350;28;20056;-68
2022/01/31 04:29:29;;;;;;;17.58;5.47;;;2.20;99.90;;;;;;5054747;28;20057;-68
2022/01/31 04:31:56;;;;;;;17.20;4.47;;;2.20;99.90;;;;;;5054317;28;20053;-68
2022/01/31 04:34:24;;;;;;;18.60;5.03;;;2.20;99.90;;;;;;5054448;28;20143;-68
2022/01/31 04:36:51;;;;;;;20.60;4.07;;;2.20;99.90;;;;;;5054858;28;20089;-68
2022/01/31 04:39:19;;;;;;;19.33;3.60;;;2.20;99.90;;;;;;5054356;28;20100;-68
2022/01/31 04:41:49;;;;;;;13.67;4.30;;;2.20;99.90;;;;;;5054337;28;20103;-68
2022/01/31 04:44:16;;;;;;;11.97;3.70;;;2.30;99.90;;;;;;5054007;28;20508;-68
2022/01/31 04:46:45;;;;;;;17.00;4.03;;;2.30;99.90;;;;;;5054119;28;20053;-68
2022/01/31 04:49:13;;;;;;;17.63;3.93;;;2.20;99.90;;;;;;5054296;28;20053;-68
2022/01/31 04:51:41;;;;;;;14.77;3.70;;;2.30;99.90;;;;;;5053967;28;20049;-68
2022/01/31 04:54:08;;;;;;;20.57;4.00;;;2.40;99.90;;;;;;5054111;28;20157;-68
2022/01/31 04:56:36;;;;;;;16.47;4.37;;;2.40;99.90;;;;;;5053895;28;20136;-68
2022/01/31 04:59:03;;;;;;;13.50;4.00;;;2.50;99.90;;;;;;5054002;28;20057;-68
2022/01/31 05:01:31;;;;;;;18.37;4.43;;;2.60;99.90;;;;;;5053880;28;20136;-68
2022/01/31 05:03:58;;;;;;;16.70;4.43;;;2.60;99.90;;;;;;5053959;28;20412;-68
2022/01/31 05:06:31;;;;;;;14.97;3.73;;;2.70;99.90;;;;;;5053506;28;20507;-68
2022/01/31 05:08:59;;;;;;;15.03;4.30;;;2.70;99.90;;;;;;5053924;28;20045;-68
2022/01/31 05:11:26;;;;;;;15.20;3.70;;;2.70;99.90;;;;;;5052796;28;20045;-68
2022/01/31 05:13:53;;;;;;;17.33;3.53;;;2.70;99.90;;;;;;5053770;28;20084;-68
2022/01/31 05:16:20;;;;;;;17.27;4.27;;;2.80;99.90;;;;;;5053259;28;20052;-68
2022/01/31 05:18:47;;;;;;;13.57;3.63;;;2.80;99.90;;;;;;5053419;28;20049;-68
2022/01/31 05:21:14;;;;;;;14.63;3.57;;;2.80;99.90;;;;;;5053452;28;20045;-68
2022/01/31 05:23:41;;;;;;;21.03;3.77;;;2.80;99.90;;;;;;5053503;28;20154;-68
2022/01/31 05:26:10;;;;;;;15.73;4.20;;;2.80;99.90;;;;;;5053019;28;20136;-68
2022/01/31 05:28:37;;;;;;;15.50;3.67;;;2.90;99.90;;;;;;5053249;28;20128;-68
2022/01/31 05:31:04;;;;;;;15.17;3.07;;;2.90;99.90;;;;;;5053522;28;20148;-68
2022/01/31 05:33:30;;;;;;;18.70;4.27;;;2.90;99.90;;;;;;5053139;28;20139;-68
2022/01/31 05:35:58;;;;;;;15.97;4.33;;;2.90;99.90;;;;;;5053099;28;20053;-68
2022/01/31 05:38:25;;;;;;;19.97;3.80;;;2.90;99.90;;;;;;5053331;28;20084;-68
2022/01/31 05:40:52;;;;;;;21.67;4.80;;;2.90;99.90;;;;;;5053531;28;20049;-68
2022/01/31 05:43:20;;;;;;;22.13;5.53;;;2.90;99.90;;;;;;5053094;28;20140;-67
2022/01/31 05:45:48;;;;;;;13.47;3.60;;;2.90;99.90;;;;;;5052644;28;20132;-67
2022/01/31 05:48:18;;;;;;;17.63;3.37;;;2.90;99.90;;;;;;5052819;28;20584;-67
2022/01/31 05:50:46;;;;;;;11.93;4.33;;;2.90;99.90;;;;;;5053202;28;20057;-68
2022/01/31 05:53:14;;;;;;;21.87;4.13;;;2.90;99.90;;;;;;5052758;28;20056;-68
2022/01/31 05:55:41;;;;;;;20.93;4.43;;;2.90;99.90;;;;;;5052582;28;20475;-68
2022/01/31 05:58:09;;;;;;;12.73;3.90;;;3.00;99.90;;;;;;5052669;28;20041;-68
2022/01/31 06:00:38;;;;;;;19.17;5.20;;;3.00;99.90;;;;;;5052769;28;20423;-68
2022/01/31 06:03:05;;;;;;;18.90;4.37;;;3.00;99.90;;;;;;5052592;28;20412;-68
2022/01/31 06:05:32;;;;;;;15.63;3.90;;;3.00;99.90;;;;;;5052244;28;20135;-69
2022/01/31 06:07:59;;;;;;;14.43;3.87;;;3.00;99.90;;;;;;5052423;28;20040;-68
2022/01/31 06:10:26;;;;;;;14.97;5.03;;;3.10;99.90;;;;;;5052664;28;20092;-68
2022/01/31 06:12:55;;;;;;;16.50;3.87;;;2.90;99.90;;;;;;5052175;28;20048;-68
2022/01/31 06:15:23;;;;;;;15.33;4.87;;;2.80;99.90;;;;;;5052058;28;20419;-68
2022/01/31 06:17:51;;;;;;;22.60;4.80;;;2.70;99.90;;;;;;5052408;28;20123;-68
2022/01/31 06:20:18;;;;;;;13.77;3.93;;;2.70;99.90;;;;;;5052249;28;20481;-69
2022/01/31 06:22:50;;;;;;;19.30;4.53;;;2.70;99.90;;;;;;5052296;28;20140;-68
2022/01/31 06:25:18;;;;;;;14.67;4.20;;;2.70;99.90;;;;;;5051987;28;20053;-69
2022/01/31 06:27:45;;;;;;;15.53;5.03;;;2.60;99.90;;;;;;5052091;28;20095;-69
2022/01/31 06:30:12;;;;;;;14.53;4.57;;;2.60;99.90;;;;;;5052474;28;20076;-69
2022/01/31 06:32:39;;;;;;;14.80;4.13;;;2.50;99.90;;;;;;5051980;28;20133;-69
2022/01/31 06:35:09;;;;;;;18.70;4.83;;;2.30;99.90;;;;;;5051872;28;20081;-69
2022/01/31 06:37:36;;;;;;;22.53;6.83;;;2.20;99.90;;;;;;5051877;28;20068;-70
2022/01/31 06:40:04;;;;;;;18.67;5.60;;;2.20;99.90;;;;;;5051735;28;20052;-69
2022/01/31 06:42:31;;;;;;;19.33;5.37;;;2.10;99.90;;;;;;5051944;28;20136;-69
2022/01/31 06:44:58;;;;;;;18.30;6.07;;;2.00;99.90;;;;;;5051524;28;20087;-68
2022/01/31 06:47:25;;;;;;;21.37;6.07;;;1.90;99.90;;;;;;5051890;28;20131;-67
2022/01/31 06:49:52;;;;;;;23.97;6.00;;;1.80;99.90;;;;;;5051901;28;20124;-68
2022/01/31 06:52:21;;;;;;;20.67;6.53;;;1.70;99.90;;;;;;5051574;28;20090;-68
2022/01/31 06:54:50;;;;;;;27.10;6.60;;;1.70;99.90;;;;;;5052013;28;20053;-68
2022/01/31 06:57:17;;;;;;;23.83;7.63;;;1.70;99.90;;;;;;5052134;28;20056;-67
2022/01/31 06:59:44;;;;;;;19.60;6.30;;;1.70;99.90;;;;;;5051851;28;20049;-68
2022/01/31 07:02:11;;;;;;;23.77;7.10;;;1.70;99.90;;;;;;5052180;28;20080;-68
2022/01/31 07:04:38;;;;;;;23.63;7.13;;;1.70;99.90;;;;;;5052146;28;20080;-68
2022/01/31 07:07:05;;;;;;;25.67;7.30;;;1.60;99.90;;;;;;5051995;28;20403;-69
2022/01/31 07:09:35;;;;;;;18.73;7.20;;;1.60;99.90;;;;;;5051869;28;20095;-69
2022/01/31 07:12:05;;;;;;;16.37;6.33;;;1.50;99.90;;;;;;5051843;28;20048;-68
2022/01/31 07:14:32;;;;;;;15.73;6.43;;;1.50;99.90;;;;;;5051809;28;20056;-68
2022/01/31 07:17:01;;;;;;;19.90;6.83;;;1.50;99.90;;;;;;5051567;28;20059;-69
2022/01/31 07:19:31;;;;;;;16.23;6.13;;;1.50;99.90;;;;;;5051268;28;20056;-69
2022/01/31 07:21:58;;;;;;;16.13;6.57;;;1.50;99.90;;;;;;5051845;28;20127;-69
2022/01/31 07:24:31;;;;;;;18.90;6.80;;;1.40;99.90;;;;;;5051623;28;20570;-68
2022/01/31 07:26:59;;;;;;;17.40;6.67;;;1.40;99.90;;;;;;5051908;28;20056;-67
2022/01/31 07:29:26;;;;;;;15.33;5.40;;;1.40;99.90;;;;;;5051709;28;20084;-69
2022/01/31 07:31:53;;;;;;;15.40;6.07;;;1.50;99.90;;;;;;5051666;28;20124;-69
2022/01/31 07:34:20;;;;;;;16.33;5.90;;;1.40;99.90;;;;;;5051867;28;20096;-68
2022/01/31 07:36:48;;;;;;;12.73;5.60;;;1.40;99.90;;;;;;5055349;28;20071;-68
2022/01/31 07:39:15;;;;;;;14.80;5.90;;;1.40;99.90;;;;;;5055596;28;20136;-68
2022/01/31 07:41:43;;;;;;;17.07;6.20;;;1.40;99.90;;;;;;5055287;28;20132;-67
2022/01/31 07:44:12;;;;;;;14.07;4.93;;;1.50;99.90;;;;;;5055243;28;20131;-68
2022/01/31 07:46:39;;;;;;;15.23;5.53;;;1.50;99.90;;;;;;5055125;28;20048;-69
2022/01/31 07:49:07;;;;;;;11.90;4.07;;;1.60;99.90;;;;;;5057830;28;20148;-68
2022/01/31 07:51:34;;;;;;;8.67;3.77;;;1.70;99.90;;;;;;5054234;28;20469;-67
2022/01/31 07:54:01;;;;;;;8.00;3.70;;;1.70;99.90;;;;;;5054066;28;20057;-67
2022/01/31 07:56:28;;;;;;;8.23;3.43;;;1.80;99.90;;;;;;5052288;28;20144;-68
2022/01/31 07:58:55;;;;;;;8.60;3.07;;;1.90;99.90;;;;;;5053418;28;20091;-68
2022/01/31 08:01:26;;;;;;;9.33;3.23;;;2.00;99.90;;;;;;5055657;28;20056;-68
2022/01/31 08:03:53;;;;;;;6.37;3.20;;;2.00;99.90;;;;;;5054857;28;20473;-67
2022/01/31 08:06:20;;;;;;;8.63;3.00;;;2.00;99.90;;;;;;5054457;28;20132;-66
2022/01/31 08:08:47;;;;;;;11.60;3.57;;;2.10;99.90;;;;;;5054557;28;20136;-66
2022/01/31 08:11:15;;;;;;;9.80;3.33;;;2.10;99.90;;;;;;5055202;28;20084;-66
2022/01/31 08:13:42;;;;;;;6.63;2.63;;;2.10;99.90;;;;;;5054750;28;20055;-68
2022/01/31 08:16:13;;;;;;;5.50;2.57;;;2.20;99.90;;;;;;5054817;28;20100;-67
2022/01/31 08:18:43;;;;;;;11.33;3.97;;;2.20;99.90;;;;;;5054873;28;20045;-68
2022/01/31 08:21:12;;;;;;;6.03;2.40;;;2.10;99.90;;;;;;5055508;28;20045;-67
2022/01/31 08:23:39;;;;;;;7.80;2.90;;;2.20;99.90;;;;;;5057489;28;20103;-68
2022/01/31 08:26:12;;;;;;;7.03;2.30;;;2.20;99.90;;;;;;5055300;28;20140;-68
2022/01/31 08:28:42;;;;;;;5.83;2.17;;;2.20;99.90;;;;;;5055363;28;20049;-68
2022/01/31 08:31:15;;;;;;;6.67;2.93;;;2.20;99.90;;;;;;5054701;28;20207;-68
2022/01/31 08:33:48;;;;;;;4.10;2.30;;;2.30;99.90;;;;;;5421826;22;20052;-66
2022/01/31 08:36:16;;;;;;;5.63;2.40;;;2.30;99.90;;;;;;5073611;28;20087;-66
2022/01/31 08:38:45;;;;;;;5.53;2.70;;;2.30;99.90;;;;;;5074093;28;20087;-66
2022/01/31 08:41:13;;;;;;;4.33;1.87;;;2.20;99.90;;;;;;5074270;28;20080;-66
2022/01/31 08:43:41;;;;;;;8.47;3.37;;;2.30;99.90;;;;;;5074140;28;20152;-65
2022/01/31 08:46:09;;;;;;;10.03;3.20;;;2.30;99.90;;;;;;5072569;28;20091;-66
2022/01/31 08:48:36;;;;;;;6.87;2.70;;;2.30;99.90;;;;;;5074783;28;20127;-66
2022/01/31 08:51:07;;;;;;;7.60;3.30;;;2.40;99.90;;;;;;5074060;28;20419;-66
2022/01/31 08:53:35;;;;;;;7.53;2.73;;;2.50;99.90;;;;;;5074092;28;20131;-66
2022/01/31 08:56:04;;;;;;;4.97;2.57;;;2.60;99.90;;;;;;5073880;28;20504;-65
2022/01/31 08:58:32;;;;;;;7.83;2.63;;;2.70;99.90;;;;;;5073866;28;20221;-66
2022/01/31 09:01:01;;;;;;;7.27;3.40;;;2.80;99.90;;;;;;5073866;28;20059;-66
2022/01/31 09:03:54;;;;;;;6.77;2.70;;;3.00;99.90;;;;;;5073815;28;20413;-65
2022/01/31 09:06:24;;;;;;;7.40;2.83;;;3.30;99.90;;;;;;5074050;28;20063;-66
2022/01/31 09:08:51;;;;;;;7.33;3.23;;;3.30;99.90;;;;;;5073977;28;20080;-66
2022/01/31 09:11:19;;;;;;;8.47;2.47;;;3.60;99.90;;;;;;5073947;28;20091;-66
2022/01/31 09:13:46;;;;;;;7.30;3.43;;;3.20;99.90;;;;;;5073555;28;20080;-66
2022/01/31 09:16:13;;;;;;;8.73;3.17;;;3.20;99.90;;;;;;5073641;28;20053;-66
2022/01/31 09:18:41;;;;;;;5.60;2.13;;;3.20;99.90;;;;;;5073548;28;20139;-66
2022/01/31 09:21:08;;;;;;;11.50;3.33;;;3.00;99.90;;;;;;5075310;28;20088;-65
2022/01/31 09:23:37;;;;;;;6.07;2.83;;;2.90;99.90;;;;;;5073252;28;20636;-65
2022/01/31 09:26:04;;;;;;;6.33;2.80;;;2.90;99.90;;;;;;5073307;28;20052;-65
2022/01/31 09:28:31;;;;;;;5.70;2.63;;;2.90;99.90;;;;;;5073361;28;20139;-65
2022/01/31 09:30:58;;;;;;;9.10;3.17;;;2.90;99.90;;;;;;5073602;28;20076;-65
2022/01/31 09:33:26;;;;;;;7.87;3.20;;;2.90;99.90;;;;;;5072890;28;20098;-65
2022/01/31 09:35:53;;;;;;;7.07;3.43;;;2.90;99.90;;;;;;5072788;28;20132;-65
2022/01/31 09:38:23;;;;;;;7.40;3.10;;;3.00;99.90;;;;;;5073106;28;20088;-65
2022/01/31 09:40:53;;;;;;;6.03;2.37;;;3.10;99.90;;;;;;5072981;28;20523;-65
2022/01/31 09:46:29;;;;;;;4.57;2.17;;;3.10;99.90;;;;;;5055365;28;20045;-65
2022/01/31 09:48:57;;;;;;;5.93;2.67;;;3.20;99.90;;;;;;5073517;28;20053;-65
2022/01/31 09:51:25;;;;;;;9.57;2.87;;;3.30;99.90;;;;;;5072797;28;20048;-65
2022/01/31 09:53:54;;;;;;;7.67;2.90;;;3.70;99.90;;;;;;5073194;28;20084;-65
2022/01/31 09:56:24;;;;;;;12.47;2.93;;;3.80;99.90;;;;;;5072340;28;20135;-66
2022/01/31 09:58:53;;;;;;;7.53;2.57;;;3.70;99.90;;;;;;5072986;28;20413;-66
2022/01/31 10:01:22;;;;;;;7.30;2.67;;;3.60;99.90;;;;;;5072562;28;20144;-64
2022/01/31 10:03:51;;;;;;;5.50;2.33;;;3.50;99.90;;;;;;5072316;28;20051;-65
2022/01/31 10:06:23;;;;;;;6.97;2.57;;;3.50;99.90;;;;;;5072234;28;20488;-65
2022/01/31 10:09:01;;;;;;;6.40;2.67;;;3.50;99.90;;;;;;5072378;28;20084;-65
2022/01/31 10:11:39;;;;;;;8.93;3.13;;;3.60;99.90;;;;;;5072355;28;20048;-65
2022/01/31 10:17:00;;;;;;;5.93;2.13;;;3.60;99.90;;;;;;5072173;28;20526;-65
2022/01/31 10:19:27;;;;;;;8.07;2.30;;;3.60;99.90;;;;;;5072593;28;20456;-65
2022/01/31 10:22:04;;;;;;;8.13;2.07;;;3.60;99.90;;;;;;5072458;28;20135;-65
2022/01/31 10:24:32;;;;;;;6.25;2.05;;;3.70;99.90;;;;;;5072307;28;20472;-65
2022/01/31 10:27:08;;;;;;;4.73;2.27;;;3.70;99.90;;;;;;5072262;28;20088;-65
2022/01/31 10:29:35;;;;;;;6.07;1.80;;;3.70;99.90;;;;;;5072576;28;20057;-65
2022/01/31 10:32:05;;;;;;;6.27;2.10;;;3.70;99.90;;;;;;5072090;28;20508;-64
2022/01/31 10:34:34;;;;;;;10.70;2.60;;;3.70;99.90;;;;;;5071750;28;20053;-64
2022/01/31 10:37:07;;;;;;;8.33;2.47;;;3.80;99.90;;;;;;5071754;28;20080;-65
2022/01/31 10:53:55;;;;;;;5.43;1.97;;;3.70;99.90;;;;;;5071844;28;20049;-65
2022/01/31 10:56:22;;;;;;;4.83;1.80;;;3.70;99.90;;;;;;5075061;28;20156;-65
2022/01/31 10:58:59;;;;;;;5.77;2.17;;;3.60;99.90;;;;;;5074671;28;20090;-66
2022/01/31 11:01:27;;;;;;;8.17;2.43;;;3.60;99.90;;;;;;5074480;28;20088;-65
2022/01/31 11:03:55;;;;;;;7.93;2.40;;;3.60;99.90;;;;;;5073322;28;20136;-65
2022/01/31 11:06:24;;;;;;;6.93;2.43;;;3.60;99.90;;;;;;5071745;28;20118;-66
2022/01/31 11:08:51;;;;;;;6.17;2.00;;;3.70;99.90;;;;;;5071281;28;20508;-66
2022/01/31 11:11:18;;;;;;;7.13;2.00;;;3.70;99.90;;;;;;5071605;28;20052;-66
2022/01/31 11:13:48;;;;;;;7.53;2.47;;;3.80;99.90;;;;;;5071515;28;20572;-66
2022/01/31 11:16:18;;;;;;;5.57;2.17;;;3.80;99.90;;;;;;5071226;28;20140;-66
2022/01/31 11:18:45;;;;;;;5.07;1.97;;;3.70;99.90;;;;;;5071883;28;20091;-66
2022/01/31 11:21:12;;;;;;;6.27;2.43;;;3.70;99.90;;;;;;5071273;28;20507;-66
2022/01/31 11:23:43;;;;;;;3.97;2.00;;;3.70;99.90;;;;;;5071288;28;20455;-66
2022/01/31 11:26:12;;;;;;;9.20;2.47;;;3.70;99.90;;;;;;5071456;28;20052;-66
2022/01/31 11:28:42;;;;;;;8.30;2.10;;;3.60;99.90;;;;;;5071379;28;20080;-66
2022/01/31 11:31:09;;;;;;;5.07;2.10;;;3.60;99.90;;;;;;5071152;28;20052;-65
2022/01/31 11:33:37;;;;;;;5.10;2.13;;;3.70;99.90;;;;;;5071172;28;20080;-66
2022/01/31 11:36:05;;;;;;;5.57;2.30;;;3.70;99.90;;;;;;5070986;28;20544;-66
2022/01/31 11:38:34;;;;;;;8.87;2.43;;;3.80;99.90;;;;;;5071281;28;20110;-66
2022/01/31 11:41:03;;;;;;;8.33;2.50;;;3.70;99.90;;;;;;5070939;28;20408;-66
2022/01/31 11:43:31;;;;;;;8.17;2.97;;;3.70;99.90;;;;;;5070961;28;20052;-66
2022/01/31 11:46:00;;;;;;;4.07;2.03;;;3.80;99.90;;;;;;5070602;28;20515;-66
2022/01/31 11:48:30;;;;;;;7.20;2.23;;;3.80;99.90;;;;;;5071260;28;20053;-66
2022/01/31 11:51:00;;;;;;;7.20;2.33;;;3.80;99.90;;;;;;5070965;28;20060;-66
2022/01/31 11:53:30;;;;;;;8.33;2.10;;;3.80;99.90;;;;;;5071204;28;20108;-66
2022/01/31 11:56:02;;;;;;;8.17;2.17;;;3.80;99.90;;;;;;5070782;28;20148;-66
2022/01/31 11:58:34;;;;;;;9.60;3.10;;;3.90;99.90;;;;;;5071275;28;20087;-66
2022/01/31 12:01:02;;;;;;;6.17;2.23;;;3.90;99.90;;;;;;5071954;28;20088;-66
2022/01/31 12:03:30;;;;;;;6.63;2.40;;;4.00;99.90;;;;;;5071092;28;20531;-66
2022/01/31 12:06:09;;;;;;;6.87;2.17;;;4.00;99.90;;;;;;5070849;28;20068;-66
2022/01/31 12:08:41;;;;;;;5.73;1.77;;;4.00;99.90;;;;;;5071117;28;20055;-66
2022/01/31 12:11:12;;;;;;;3.90;1.40;;;4.00;99.90;;;;;;5071324;28;20056;-66
2022/01/31 12:13:43;;;;;;;6.20;1.60;;;3.90;99.90;;;;;;5070842;28;20052;-66
2022/01/31 12:16:47;;;;;;;7.87;2.70;;;3.90;99.90;;;;;;5071161;28;20053;-67
2022/01/31 12:19:46;;;;;;;5.50;2.17;;;4.00;99.90;;;;;;5071345;28;20143;-66
2022/01/31 12:22:47;;;;;;;5.17;1.83;;;3.90;99.90;;;;;;5074478;28;20048;-66
2022/01/31 12:25:27;;;;;;;6.23;1.60;;;3.90;99.90;;;;;;5073998;28;20423;-66
2022/01/31 12:27:55;;;;;;;7.90;1.93;;;3.90;99.90;;;;;;5074678;28;20071;-66
2022/01/31 12:30:37;;;;;;;6.13;1.90;;;4.00;99.90;;;;;;5074450;28;20095;-66
2022/01/31 12:33:05;;;;;;;7.37;1.40;;;4.00;99.90;;;;;;5074428;28;20139;-66
2022/01/31 12:35:35;;;;;;;5.47;1.50;;;3.90;99.90;;;;;;5073752;28;20435;-66
2022/01/31 12:38:04;;;;;;;3.33;1.10;;;3.90;99.90;;;;;;5074014;28;20106;-66
2022/01/31 12:40:39;;;;;;;5.73;1.30;;;3.90;99.90;;;;;;5074070;28;20516;-66
2022/01/31 12:43:23;;;;;;;6.23;1.33;;;3.90;99.90;;;;;;5074323;28;20056;-65
2022/01/31 12:46:06;;;;;;;1.80;1.10;;;3.90;99.90;;;;;;5073844;28;20053;-66
2022/01/31 12:48:36;;;;;;;4.33;1.43;;;3.90;99.90;;;;;;5076195;28;20067;-66
2022/01/31 12:51:07;;;;;;;5.50;1.07;;;3.80;99.90;;;;;;5076780;28;20075;-66
2022/01/31 12:53:48;;;;;;;3.73;1.07;;;3.80;99.90;;;;;;5075518;28;20136;-68
2022/01/31 12:56:30;;;;;;;3.67;0.90;;;3.80;99.90;;;;;;5074243;28;20515;-67
2022/01/31 12:59:00;;;;;;;6.23;1.60;;;3.80;99.90;;;;;;5074387;28;20122;-67
2022/01/31 13:01:29;;;;;;;3.63;1.27;;;3.80;99.90;;;;;;5073951;28;20048;-67
2022/01/31 13:04:00;;;;;;;6.17;1.60;;;3.70;99.90;;;;;;5074278;28;20103;-67
2022/01/31 13:06:35;;;;;;;4.23;1.30;;;3.70;99.90;;;;;;5073782;28;20091;-68
2022/01/31 13:09:12;;;;;;;2.40;0.97;;;3.80;99.90;;;;;;5074383;28;20135;-68
2022/01/31 13:11:39;;;;;;;4.95;1.48;;;3.70;99.90;;;;;;5073994;28;20056;-68
2022/01/31 13:14:09;;;;;;;4.90;1.40;;;3.70;99.90;;;;;;5073937;28;20076;-67
2022/01/31 13:16:57;;;;;;;2.60;1.00;;;3.80;99.90;;;;;;5073517;28;20109;-67
2022/01/31 13:19:27;;;;;;;2.67;0.90;;;3.70;99.90;;;;;;5075176;28;20455;-67
2022/01/31 13:21:56;;;;;;;4.93;1.63;;;3.80;99.90;;;;;;5074511;28;20048;-68